createdAt,value
2019-03-08T00:04:58.843Z,40.54
2019-03-08T00:10:58.903Z,40.79
2019-03-08T00:16:58.865Z,40.65
2019-03-08T00:22:59.941Z,40.40
2019-03-08T00:28:58.887Z,40.19
2019-03-08T00:34:58.845Z,40.50
2019-03-08T00:40:58.874Z,40.91
2019-03-08T00:46:58.879Z,40.80
2019-03-08T00:52:58.882Z,41.22
2019-03-08T00:58:58.891Z,41.53
2019-03-08T01:04:58.908Z,40.75
2019-03-08T01:11:01.971Z,41.53
2019-03-08T01:16:58.880Z,41.75
2019-03-08T01:22:59.002Z,41.86
2019-03-08T01:28:58.951Z,41.58
2019-03-08T01:34:58.924Z,41.56
2019-03-08T01:40:58.915Z,41.75
2019-03-08T01:46:58.931Z,41.70
2019-03-08T01:52:58.916Z,41.60
2019-03-08T01:58:58.950Z,41.58
2019-03-08T02:04:58.990Z,41.57
2019-03-08T02:10:58.907Z,42.09
2019-03-08T02:16:58.942Z,41.65
2019-03-08T02:22:58.971Z,41.87
2019-03-08T02:28:58.965Z,42.21
2019-03-08T02:34:58.939Z,42.07
2019-03-08T02:40:58.964Z,42.16
2019-03-08T02:46:58.961Z,42.01
2019-03-08T02:52:58.968Z,42.01
2019-03-08T02:58:58.970Z,42.29
2019-03-08T03:04:58.985Z,42.11
2019-03-08T03:10:58.943Z,42.13
2019-03-08T03:16:58.999Z,41.77
2019-03-08T03:22:58.995Z,41.94
2019-03-08T03:28:59.031Z,41.83
2019-03-08T03:34:59.019Z,42.10
2019-03-08T03:41:00.029Z,42.29
2019-03-08T03:46:59.003Z,42.15
2019-03-08T03:52:59.032Z,42.41
2019-03-08T03:58:59.027Z,42.24
2019-03-08T04:04:58.996Z,42.63
2019-03-08T04:10:59.009Z,42.48
2019-03-08T04:16:58.993Z,42.46
2019-03-08T04:22:59.026Z,42.48
2019-03-08T04:28:59.039Z,42.48
2019-03-08T04:34:59.043Z,42.50
2019-03-08T04:40:59.042Z,42.30
2019-03-08T04:46:59.073Z,42.11
2019-03-08T04:52:59.051Z,42.27
2019-03-08T04:58:59.070Z,42.38
2019-03-08T05:04:59.069Z,42.11
2019-03-08T05:10:59.180Z,42.42
2019-03-08T05:16:59.038Z,42.16
2019-03-08T05:22:59.056Z,42.10
2019-03-08T05:28:59.094Z,42.02
2019-03-08T05:34:59.062Z,42.25
2019-03-08T05:40:59.074Z,42.04
2019-03-08T05:46:59.098Z,42.17
2019-03-08T05:52:59.099Z,42.37
2019-03-08T05:58:59.311Z,41.90
2019-03-08T06:04:59.082Z,42.19
2019-03-08T06:10:59.077Z,42.26
2019-03-08T06:16:59.123Z,42.39
2019-03-08T06:22:59.128Z,42.68
2019-03-08T06:28:59.163Z,42.63
2019-03-08T06:34:59.103Z,42.59
2019-03-08T06:40:59.146Z,42.52
2019-03-08T06:46:59.176Z,42.68
2019-03-08T06:52:59.148Z,42.38
2019-03-08T06:58:59.476Z,42.50
2019-03-08T07:04:59.117Z,42.51
2019-03-08T07:10:59.134Z,42.20
2019-03-08T07:16:59.158Z,42.08
2019-03-08T07:22:59.143Z,42.71
2019-03-08T07:28:59.195Z,42.50
2019-03-08T07:34:59.156Z,43.05
2019-03-08T07:40:59.174Z,42.96
2019-03-08T07:46:59.178Z,42.78
2019-03-08T07:52:59.186Z,42.61
2019-03-08T07:58:59.185Z,42.82
2019-03-08T08:04:59.196Z,42.44
2019-03-08T08:10:59.200Z,42.58
2019-03-08T08:16:59.172Z,42.30
2019-03-08T08:22:59.194Z,42.12
2019-03-08T08:28:59.212Z,42.22
2019-03-08T08:34:59.226Z,42.22
2019-03-08T08:40:59.195Z,41.46
2019-03-08T08:46:59.213Z,41.37
2019-03-08T08:52:59.308Z,41.31
2019-03-08T08:58:59.235Z,41.09
2019-03-08T09:05:01.147Z,40.96
2019-03-08T09:10:59.218Z,41.03
2019-03-08T09:16:59.229Z,40.90
2019-03-08T09:22:59.232Z,40.72
2019-03-08T09:28:59.266Z,40.38
2019-03-08T09:34:59.279Z,40.69
2019-03-08T09:40:59.236Z,40.91
2019-03-08T09:46:59.283Z,40.96
2019-03-08T09:52:59.302Z,41.21
2019-03-08T09:58:59.251Z,41.61
2019-03-08T10:04:59.248Z,40.02
2019-03-08T10:10:59.274Z,40.91
2019-03-08T10:16:59.249Z,41.15
2019-03-08T10:22:59.231Z,41.25
2019-03-08T10:28:59.300Z,41.66
2019-03-08T10:34:59.321Z,41.48
2019-03-08T10:40:59.322Z,41.51
2019-03-08T10:46:59.309Z,41.43
2019-03-08T10:52:59.309Z,41.59
2019-03-08T10:58:59.336Z,41.21
2019-03-08T11:04:59.328Z,41.24
2019-03-08T11:11:06.113Z,40.99
2019-03-08T11:16:59.303Z,40.93
2019-03-08T11:22:59.311Z,40.94
2019-03-08T11:28:59.342Z,40.86
2019-03-08T11:34:59.354Z,40.96
2019-03-08T11:40:59.351Z,40.96
2019-03-08T11:46:59.405Z,41.15
2019-03-08T11:52:59.392Z,41.02
2019-03-08T11:58:59.318Z,41.06
2019-03-08T12:04:59.325Z,40.98
2019-03-08T12:10:59.380Z,41.08
2019-03-08T12:16:59.384Z,41.28
2019-03-08T12:22:59.331Z,41.79
2019-03-08T12:28:59.377Z,41.89
2019-03-08T12:34:59.402Z,41.80
2019-03-08T12:40:59.378Z,42.13
2019-03-08T12:46:59.421Z,42.22
2019-03-08T12:52:59.411Z,42.16
2019-03-08T12:59:00.619Z,42.31
2019-03-08T13:04:59.388Z,42.47
2019-03-08T13:10:59.409Z,42.18
2019-03-08T13:16:59.388Z,42.35
2019-03-08T13:22:59.421Z,42.33
2019-03-08T13:28:59.388Z,42.11
2019-03-08T13:34:59.391Z,42.32
2019-03-08T13:40:59.429Z,42.25
2019-03-08T13:46:59.423Z,42.22
2019-03-08T13:52:59.419Z,42.20
2019-03-08T13:59:00.278Z,42.10
2019-03-08T14:04:59.447Z,42.14
2019-03-08T14:10:59.398Z,42.46
2019-03-08T14:16:59.462Z,42.12
2019-03-08T14:22:59.438Z,43.11
2019-03-08T14:28:59.489Z,42.31
2019-03-08T14:34:59.443Z,42.30
2019-03-08T14:40:59.511Z,40.16
2019-03-08T14:46:59.536Z,41.34
2019-03-08T14:52:59.491Z,42.02
2019-03-08T14:58:59.634Z,42.45
2019-03-08T15:04:59.493Z,42.16
2019-03-08T15:10:59.459Z,42.31
2019-03-08T15:17:08.694Z,43.08
2019-03-08T15:22:59.513Z,42.80
2019-03-08T15:28:59.500Z,42.51
2019-03-08T15:34:59.486Z,42.35
2019-03-08T15:40:59.521Z,42.13
2019-03-08T15:47:00.473Z,41.96
2019-03-08T15:52:59.497Z,42.90
2019-03-08T15:58:59.658Z,42.33
2019-03-08T16:04:59.624Z,42.53
2019-03-08T16:11:00.573Z,42.92
2019-03-08T16:16:59.534Z,43.17
2019-03-08T16:23:02.592Z,42.82
2019-03-08T16:28:59.550Z,43.13
2019-03-08T16:34:59.594Z,42.77
2019-03-08T16:40:59.511Z,42.45
2019-03-08T16:46:59.538Z,42.48
2019-03-08T16:52:59.563Z,42.56
2019-03-08T16:58:59.548Z,42.62
2019-03-08T17:04:59.574Z,42.33
2019-03-08T17:10:59.536Z,42.52
2019-03-08T17:16:59.567Z,42.19
2019-03-08T17:22:59.562Z,41.38
2019-03-08T17:28:59.559Z,40.34
2019-03-08T17:34:59.570Z,41.27
2019-03-08T17:40:59.550Z,41.30
2019-03-08T17:46:59.596Z,41.32
2019-03-08T17:52:59.579Z,41.40
2019-03-08T17:58:59.601Z,41.70
2019-03-08T18:04:59.630Z,41.48
2019-03-08T18:10:59.581Z,41.48
2019-03-08T18:16:59.574Z,41.94
2019-03-08T18:23:00.627Z,41.19
2019-03-08T18:28:59.594Z,41.72
2019-03-08T18:34:59.659Z,41.78
2019-03-08T18:40:59.604Z,41.20
2019-03-08T18:46:59.668Z,41.56
2019-03-08T18:52:59.644Z,41.22
2019-03-08T18:58:59.690Z,41.18
2019-03-08T19:04:59.669Z,41.06
2019-03-08T19:10:59.634Z,41.44
2019-03-08T19:16:59.639Z,41.55
2019-03-08T19:22:59.650Z,41.10
2019-03-08T19:28:59.670Z,40.88
2019-03-08T19:34:59.641Z,41.38
2019-03-08T19:40:59.647Z,41.38
2019-03-08T19:46:59.700Z,41.03
2019-03-08T19:52:59.686Z,40.80
2019-03-08T19:58:59.723Z,41.35
2019-03-08T20:04:59.709Z,40.88
2019-03-08T20:10:59.716Z,41.05
2019-03-08T20:16:59.740Z,40.65
2019-03-08T20:22:59.692Z,41.06
2019-03-08T20:28:59.688Z,40.71
2019-03-08T20:34:59.733Z,40.83
2019-03-08T20:40:59.688Z,40.82
2019-03-08T20:46:59.733Z,40.66
2019-03-08T20:52:59.777Z,40.97
2019-03-08T20:58:59.762Z,41.68
2019-03-08T21:04:59.737Z,41.80
2019-03-08T21:10:59.772Z,42.11
2019-03-08T21:17:00.016Z,42.34
2019-03-08T21:22:59.729Z,42.30
2019-03-08T21:28:59.752Z,42.08
2019-03-08T21:34:59.810Z,42.12
2019-03-08T21:40:59.750Z,42.02
2019-03-08T21:46:59.780Z,42.18
2019-03-08T21:52:59.798Z,42.61
2019-03-08T21:58:59.787Z,42.27
2019-03-08T22:04:59.800Z,42.56
2019-03-08T22:10:59.772Z,42.82
2019-03-08T22:16:59.807Z,42.39
2019-03-08T22:22:59.879Z,42.74
2019-03-08T22:28:59.786Z,42.61
2019-03-08T22:34:59.814Z,42.92
2019-03-08T22:40:59.801Z,42.71
2019-03-08T22:46:59.781Z,42.57
2019-03-08T22:52:59.805Z,42.77
2019-03-08T22:58:59.815Z,42.68
2019-03-08T23:04:59.813Z,42.65
2019-03-08T23:10:59.812Z,42.31
2019-03-08T23:16:59.850Z,42.59
2019-03-08T23:22:59.811Z,42.63
2019-03-08T23:28:59.885Z,42.43
2019-03-08T23:34:59.809Z,42.49
2019-03-08T23:40:59.950Z,42.33
2019-03-08T23:46:59.828Z,42.29
2019-03-08T23:52:59.928Z,42.34
2019-03-08T23:58:59.883Z,42.40
